createdAt,value
2019-06-10T00:00:37.989Z,95228.06
2019-06-10T00:05:41.364Z,95230.39
2019-06-10T00:10:44.727Z,95234.45
2019-06-10T00:15:46.632Z,95230.69
2019-06-10T00:20:48.476Z,95218.89
2019-06-10T00:25:51.554Z,95224.85
2019-06-10T00:30:53.648Z,95230.80
2019-06-10T00:35:55.523Z,95213.52
2019-06-10T00:40:57.342Z,95213.52
2019-06-10T00:46:00.722Z,95237.41
2019-06-10T00:51:04.476Z,95237.31
2019-06-10T00:56:08.335Z,95233.09
2019-06-10T01:01:14.023Z,95222.42
2019-06-10T01:06:15.079Z,95219.34
2019-06-10T01:11:23.686Z,95184.33
2019-06-10T01:16:21.642Z,95186.30
2019-06-10T01:21:23.770Z,95186.30
2019-06-10T01:26:25.575Z,95197.78
2019-06-10T01:31:27.385Z,95203.12
2019-06-10T01:36:31.210Z,95200.95
2019-06-10T01:41:32.964Z,95191.92
2019-06-10T01:46:34.809Z,95187.40
2019-06-10T01:51:36.686Z,95186.91
2019-06-10T01:56:40.720Z,95175.42
2019-06-10T02:01:56.430Z,95182.14
2019-06-10T02:06:58.345Z,95179.28
2019-06-10T02:12:02.220Z,95174.47
2019-06-10T02:17:04.062Z,95177.89
2019-06-10T02:22:05.912Z,95177.89
2019-06-10T02:27:07.713Z,95178.75
2019-06-10T02:32:17.260Z,95176.80
2019-06-10T02:37:17.019Z,95177.94
2019-06-10T02:42:30.628Z,95177.61
2019-06-10T02:47:33.635Z,95176.28
2019-06-10T02:52:38.241Z,95168.45
2019-06-10T02:57:40.052Z,95168.45
2019-06-10T03:02:44.547Z,95186.45
2019-06-10T03:07:44.602Z,95184.31
2019-06-10T03:12:46.495Z,95188.47
2019-06-10T03:17:49.417Z,95179.03
2019-06-10T03:22:52.517Z,95182.42
2019-06-10T03:27:54.632Z,95191.87
2019-06-10T03:32:56.413Z,95193.61
2019-06-10T03:37:58.226Z,95187.97
2019-06-10T03:43:02.500Z,95194.97
2019-06-10T03:48:03.866Z,95180.61
2019-06-10T03:53:05.699Z,95180.95
2019-06-10T03:58:07.565Z,95180.23
2019-06-10T04:03:09.376Z,95188.58
2019-06-10T04:08:12.570Z,95193.48
2019-06-10T04:13:14.469Z,95193.00
2019-06-10T04:18:17.769Z,95191.15
2019-06-10T04:23:19.878Z,95191.16
2019-06-10T04:28:24.055Z,95187.69
2019-06-10T04:33:27.055Z,95185.86
2019-06-10T04:38:29.357Z,95177.89
2019-06-10T04:43:32.546Z,95186.47
2019-06-10T04:48:35.887Z,95176.52
2019-06-10T04:53:40.323Z,95176.52
2019-06-10T04:58:43.228Z,95176.02
2019-06-10T05:03:45.300Z,95166.07
2019-06-10T05:08:47.193Z,95175.00
2019-06-10T05:13:49.089Z,95180.63
2019-06-10T05:18:54.110Z,95176.31
2019-06-10T05:23:54.668Z,95174.77
2019-06-10T05:28:56.529Z,95162.95
2019-06-10T05:33:59.427Z,95159.94
2019-06-10T05:39:02.725Z,95155.13
2019-06-10T05:44:05.061Z,95150.25
2019-06-10T05:49:06.977Z,95150.25
2019-06-10T05:54:08.870Z,95148.44
2019-06-10T05:59:12.100Z,95151.27
2019-06-10T06:04:14.203Z,95150.64
2019-06-10T06:09:16.081Z,95146.97
2019-06-10T06:14:17.978Z,95142.95
2019-06-10T06:19:19.870Z,95135.42
2019-06-10T06:24:22.085Z,95138.57
2019-06-10T06:29:24.035Z,95135.10
2019-06-10T06:34:26.880Z,95136.98
2019-06-10T06:39:29.331Z,95136.30
2019-06-10T06:44:33.668Z,95123.34
2019-06-10T06:49:37.075Z,95119.12
2019-06-10T06:54:39.491Z,95115.56
2019-06-10T06:59:43.223Z,95107.09
2019-06-10T07:04:48.490Z,95102.84
2019-06-10T07:09:52.748Z,95094.18
2019-06-10T07:14:54.604Z,95096.34
2019-06-10T07:19:57.640Z,95091.20
2019-06-10T07:25:03.438Z,95087.39
2019-06-10T07:30:15.670Z,95082.73
2019-06-10T07:35:17.679Z,95081.03
2019-06-10T07:40:19.526Z,95075.48
2019-06-10T07:45:23.441Z,95077.42
2019-06-10T07:50:25.440Z,95067.02
2019-06-10T07:55:28.187Z,95078.42
2019-06-10T08:00:30.007Z,95076.66
2019-06-10T08:05:32.406Z,95061.87
2019-06-10T08:10:35.534Z,95064.56
2019-06-10T08:15:37.566Z,95061.62
2019-06-10T08:20:45.414Z,95059.30
2019-06-10T08:25:53.651Z,95056.32
2019-06-10T08:30:53.313Z,95058.89
2019-06-10T08:36:00.204Z,95050.72
2019-06-10T08:40:59.110Z,95046.16
2019-06-10T08:46:02.544Z,95043.00
2019-06-10T08:51:04.782Z,95031.70
2019-06-10T08:56:07.181Z,95042.60
2019-06-10T09:01:09.155Z,95032.99
2019-06-10T09:06:12.768Z,95041.70
2019-06-10T09:11:14.737Z,95031.41
2019-06-10T09:16:19.368Z,95034.92
2019-06-10T09:21:22.296Z,95031.95
2019-06-10T09:26:23.988Z,95033.02
2019-06-10T09:31:25.876Z,95031.95
2019-06-10T09:36:27.662Z,95028.16
2019-06-10T09:41:37.345Z,95020.55
2019-06-10T09:46:34.157Z,95028.44
2019-06-10T09:51:35.983Z,95004.55
2019-06-10T09:56:37.820Z,95006.99
2019-06-10T10:01:40.882Z,94994.95
2019-06-10T10:06:46.657Z,94996.03
2019-06-10T10:11:48.809Z,95005.00
2019-06-10T10:16:58.687Z,94998.30
2019-06-10T10:21:58.207Z,94993.95
2019-06-10T10:27:01.873Z,94991.83
2019-06-10T10:32:02.781Z,94978.80
2019-06-10T10:37:05.725Z,94969.89
2019-06-10T10:42:07.595Z,94957.97
2019-06-10T10:47:09.389Z,94953.34
2019-06-10T10:52:12.963Z,94942.25
2019-06-10T10:57:15.044Z,94938.23
2019-06-10T11:02:16.896Z,94931.16
2019-06-10T11:07:18.779Z,94918.16
2019-06-10T11:12:22.962Z,94904.77
2019-06-10T11:17:25.817Z,94920.64
2019-06-10T11:22:27.980Z,94903.52
2019-06-10T11:27:30.838Z,94897.60
2019-06-10T11:32:33.582Z,94893.01
2019-06-10T11:37:35.876Z,94865.58
2019-06-10T11:42:37.694Z,94872.09
2019-06-10T11:47:42.605Z,94870.95
2019-06-10T11:52:44.594Z,94876.12
2019-06-10T11:57:47.774Z,94858.34
2019-06-10T12:02:50.912Z,94867.56
2019-06-10T12:07:57.591Z,94858.34
2019-06-10T12:13:00.556Z,94850.73
2019-06-10T12:18:07.885Z,94839.28
2019-06-10T12:23:05.490Z,94825.05
2019-06-10T12:28:07.997Z,94822.47
2019-06-10T12:33:20.015Z,94829.81
2019-06-10T12:38:18.590Z,94832.19
2019-06-10T12:43:23.196Z,94822.27
2019-06-10T12:48:24.921Z,94822.78
2019-06-10T12:53:27.228Z,94816.92
2019-06-10T12:58:30.169Z,94820.66
2019-06-10T13:03:33.653Z,94825.14
2019-06-10T13:08:36.678Z,94826.95
2019-06-10T13:13:39.298Z,94840.21
2019-06-10T14:03:53.801Z,94876.45
2019-06-10T14:08:56.155Z,94895.69
2019-06-10T14:13:59.048Z,94863.79
2019-06-10T14:19:02.083Z,94860.99
2019-06-10T14:24:06.088Z,94851.91
2019-06-10T14:29:09.246Z,94856.80
2019-06-10T14:34:16.334Z,94860.30
2019-06-10T14:39:16.059Z,94855.55
2019-06-10T14:44:18.167Z,94841.77
2019-06-10T14:49:22.274Z,94827.65
2019-06-10T14:54:24.111Z,94839.54
2019-06-10T14:59:26.012Z,94834.16
2019-06-10T15:04:27.898Z,94827.17
2019-06-10T15:09:29.825Z,94819.02
2019-06-10T15:14:32.363Z,94817.66
2019-06-10T15:19:34.411Z,94810.86
2019-06-10T15:24:36.268Z,94803.16
2019-06-10T15:29:38.179Z,94784.75
2019-06-10T15:34:40.139Z,94778.95
2019-06-10T15:39:42.976Z,94767.98
2019-06-10T15:44:52.297Z,94756.59
2019-06-10T15:49:48.990Z,94750.30
2019-06-10T15:54:52.565Z,94735.50
2019-06-10T15:59:54.709Z,94749.45
2019-06-10T16:04:56.602Z,94761.21
2019-06-10T16:09:58.593Z,94778.52
2019-06-10T16:15:02.638Z,94755.40
2019-06-10T16:20:09.558Z,94727.16
2019-06-10T16:25:12.659Z,94739.89
2019-06-10T16:30:42.797Z,94738.73
2019-06-10T16:35:45.076Z,94738.61
2019-06-10T16:46:52.698Z,94762.75
2019-06-10T16:51:54.851Z,94766.73
2019-06-10T16:56:56.762Z,94777.48
2019-06-10T17:01:58.942Z,94775.09
2019-06-10T17:07:03.939Z,94778.02
2019-06-10T17:12:06.162Z,94735.19
2019-06-10T17:17:08.563Z,94779.05
2019-06-10T17:22:12.630Z,94784.58
2019-06-10T17:27:14.487Z,94784.58
2019-06-10T17:32:16.548Z,94775.11
2019-06-10T17:37:20.309Z,94778.25
2019-06-10T17:42:27.831Z,94780.03
2019-06-10T17:47:27.717Z,94779.59
2019-06-10T17:52:32.366Z,94772.48
2019-06-10T17:57:35.856Z,94769.63
2019-06-10T18:02:39.369Z,94755.76
2019-06-10T18:07:41.958Z,94752.48
2019-06-10T18:12:43.848Z,94758.44
2019-06-10T18:17:45.983Z,94768.20
2019-06-10T18:22:48.065Z,94780.48
2019-06-10T18:27:52.316Z,94792.55
2019-06-10T18:32:55.179Z,94802.35
2019-06-10T18:37:57.705Z,94805.35
2019-06-10T18:42:59.963Z,94799.67
2019-06-10T18:48:02.346Z,94805.54
2019-06-10T18:53:04.479Z,94809.27
2019-06-10T18:58:07.035Z,94812.73
2019-06-10T19:03:13.154Z,94814.18
2019-06-10T19:08:12.839Z,94822.84
2019-06-10T19:13:14.788Z,94822.97
2019-06-10T19:18:16.719Z,94823.70
2019-06-10T19:39:49.305Z,94883.52
2019-06-10T19:44:45.951Z,94880.17
2019-06-10T19:49:47.902Z,94873.10
2019-06-10T19:54:49.820Z,94874.68
2019-06-10T20:00:07.246Z,94873.82
2019-06-10T20:04:55.798Z,94878.09
2019-06-10T20:09:57.745Z,94898.08
2019-06-10T20:15:02.265Z,94904.63
2019-06-10T20:20:05.925Z,94880.02
2019-06-10T20:25:07.843Z,94860.58
2019-06-10T20:30:24.354Z,94871.97
2019-06-10T20:35:15.479Z,94851.66
2019-06-10T20:40:17.477Z,94843.55
2019-06-10T20:45:19.403Z,94843.55
2019-06-10T20:50:21.611Z,94858.77
2019-06-10T20:55:37.653Z,94868.12
2019-06-10T21:00:36.337Z,94862.67
2019-06-10T21:05:41.627Z,94842.36
2019-06-10T21:10:46.321Z,94842.36
2019-06-10T21:15:50.325Z,94840.03
2019-06-10T21:20:55.970Z,94829.08
2019-06-10T21:25:54.970Z,94829.08
2019-06-10T21:30:58.786Z,94850.28
2019-06-10T21:36:03.540Z,94835.41
2019-06-10T21:41:04.659Z,94837.81
2019-06-10T21:46:06.639Z,94830.27
2019-06-10T21:51:08.408Z,94826.17
2019-06-10T21:56:12.361Z,94827.20
2019-06-10T22:01:16.885Z,94815.20
2019-06-10T22:06:17.909Z,94810.91
2019-06-10T22:11:19.827Z,94807.55
2019-06-10T22:16:22.642Z,94797.34
2019-06-10T22:21:24.675Z,94788.98
2019-06-10T22:26:26.490Z,94786.80
2019-06-10T22:31:28.315Z,94777.15
2019-06-10T22:36:32.564Z,94773.02
2019-06-10T22:41:34.047Z,94766.59
2019-06-10T22:46:35.873Z,94755.93
2019-06-10T22:51:37.769Z,94766.30
2019-06-10T22:56:39.645Z,94750.28
2019-06-10T23:01:42.389Z,94732.87
2019-06-10T23:06:44.308Z,94747.59
2019-06-10T23:11:46.192Z,94742.46
2019-06-10T23:16:48.850Z,94724.70
2019-06-10T23:21:51.807Z,94741.56
2019-06-10T23:26:55.899Z,94736.28
2019-06-10T23:32:03.465Z,94736.28
2019-06-10T23:37:01.739Z,94729.63
2019-06-10T23:42:04.305Z,94716.91
2019-06-10T23:47:06.443Z,94721.09
2019-06-10T23:52:08.352Z,94716.44
2019-06-10T23:57:10.167Z,94706.73
